TimeCST,TemperatureF,Dew PointF,Humidity,Sea Level PressureIn,VisibilityMPH,Wind Direction,Wind SpeedMPH,Gust SpeedMPH,PrecipitationIn,Events,Conditions,WindDirDegrees,DateUTC
12:15 AM,37.4,37.4,100,29.83,2.5,SSE,3.5,-,N/A,,Overcast,160,2013-02-22 06:15:00
12:35 AM,39.2,39.2,100,29.83,3.0,SSE,5.8,-,N/A,,Overcast,160,2013-02-22 06:35:00
12:55 AM,39.2,39.2,100,29.84,2.5,South,6.9,-,N/A,,Overcast,170,2013-02-22 06:55:00
1:15 AM,39.2,39.2,100,29.85,2.5,South,5.8,-,N/A,,Overcast,190,2013-02-22 07:15:00
1:35 AM,41.0,39.2,93,29.85,2.0,SW,10.4,-,N/A,,Overcast,220,2013-02-22 07:35:00
1:55 AM,41.0,41.0,100,29.86,5.0,SW,11.5,-,N/A,,Overcast,230,2013-02-22 07:55:00
2:15 AM,41.0,41.0,100,29.86,6.0,WSW,9.2,18.4,N/A,,Overcast,240,2013-02-22 08:15:00
2:35 AM,41.0,41.0,100,29.86,10.0,WSW,10.4,-,N/A,,Overcast,250,2013-02-22 08:35:00
2:55 AM,41.0,41.0,100,29.87,10.0,SW,10.4,-,N/A,,Overcast,230,2013-02-22 08:55:00
3:15 AM,41.0,39.2,93,29.87,10.0,WSW,12.7,16.1,N/A,,Overcast,240,2013-02-22 09:15:00
3:35 AM,39.2,39.2,100,29.87,10.0,WSW,13.8,20.7,N/A,,Overcast,240,2013-02-22 09:35:00
3:55 AM,39.2,37.4,93,29.88,10.0,WSW,8.1,-,N/A,,Overcast,240,2013-02-22 09:55:00
4:15 AM,39.2,37.4,93,29.89,10.0,SW,11.5,17.3,N/A,,Overcast,220,2013-02-22 10:15:00
4:35 AM,39.2,37.4,93,29.91,10.0,WSW,13.8,-,N/A,,Mostly Cloudy,240,2013-02-22 10:35:00
4:55 AM,39.2,37.4,93,29.93,10.0,WSW,11.5,-,N/A,,Overcast,250,2013-02-22 10:55:00
5:15 AM,39.2,37.4,93,29.94,10.0,WSW,15.0,18.4,N/A,,Overcast,240,2013-02-22 11:15:00
5:35 AM,39.2,37.4,93,29.95,10.0,WSW,11.5,-,N/A,,Overcast,250,2013-02-22 11:35:00
5:55 AM,37.4,35.6,93,29.95,10.0,WSW,12.7,-,N/A,,Overcast,240,2013-02-22 11:55:00
6:15 AM,37.4,35.6,93,29.95,10.0,West,8.1,-,N/A,,Overcast,270,2013-02-22 12:15:00
6:55 AM,37.4,35.6,93,29.97,10.0,WSW,12.7,-,N/A,,Overcast,250,2013-02-22 12:55:00
7:15 AM,37.4,35.6,93,29.98,10.0,WSW,12.7,-,N/A,,Overcast,240,2013-02-22 13:15:00
7:55 AM,37.4,35.6,93,30.00,10.0,SW,8.1,-,N/A,,Overcast,230,2013-02-22 13:55:00
8:15 AM,37.4,35.6,93,30.00,10.0,SW,8.1,-,N/A,,Overcast,220,2013-02-22 14:15:00
8:35 AM,37.4,35.6,93,30.01,10.0,WSW,11.5,-,N/A,,Overcast,250,2013-02-22 14:35:00
8:55 AM,39.2,35.6,87,30.02,10.0,SW,5.8,-,N/A,,Overcast,230,2013-02-22 14:55:00
9:15 AM,39.2,35.6,87,30.03,10.0,WSW,12.7,-,N/A,,Overcast,240,2013-02-22 15:15:00
9:35 AM,41.0,35.6,81,30.03,10.0,WSW,10.4,-,N/A,,Overcast,240,2013-02-22 15:35:00
9:55 AM,41.0,35.6,81,30.03,10.0,SW,8.1,-,N/A,,Overcast,220,2013-02-22 15:55:00
10:15 AM,41.0,35.6,81,30.04,10.0,WSW,10.4,-,N/A,,Overcast,240,2013-02-22 16:15:00
10:35 AM,41.0,35.6,81,30.04,10.0,SW,11.5,-,N/A,,Overcast,230,2013-02-22 16:35:00
10:55 AM,41.0,35.6,81,30.05,10.0,WSW,10.4,-,N/A,,Overcast,250,2013-02-22 16:55:00
11:15 AM,42.8,35.6,76,30.04,10.0,SW,11.5,18.4,N/A,,Overcast,230,2013-02-22 17:15:00
11:35 AM,42.8,35.6,76,30.04,10.0,West,10.4,-,N/A,,Overcast,260,2013-02-22 17:35:00
11:55 AM,42.8,37.4,81,30.03,10.0,West,9.2,-,N/A,,Overcast,260,2013-02-22 17:55:00
12:15 PM,42.8,37.4,81,30.03,10.0,WSW,10.4,-,N/A,,Overcast,250,2013-02-22 18:15:00
12:35 PM,44.6,37.4,76,30.02,10.0,WSW,9.2,-,N/A,,Overcast,250,2013-02-22 18:35:00
12:55 PM,44.6,37.4,76,30.02,10.0,WSW,12.7,-,N/A,,Overcast,240,2013-02-22 18:55:00
1:15 PM,44.6,37.4,76,30.02,10.0,WSW,15.0,18.4,N/A,,Overcast,240,2013-02-22 19:15:00
1:35 PM,44.6,37.4,76,30.01,10.0,SW,15.0,18.4,N/A,,Overcast,230,2013-02-22 19:35:00
1:55 PM,42.8,37.4,81,30.01,10.0,SW,10.4,-,N/A,,Overcast,230,2013-02-22 19:55:00
2:15 PM,44.6,37.4,76,30.01,10.0,SW,11.5,16.1,N/A,,Mostly Cloudy,230,2013-02-22 20:15:00
2:35 PM,44.6,35.6,71,30.00,10.0,WSW,10.4,18.4,N/A,,Overcast,250,2013-02-22 20:35:00
2:55 PM,44.6,35.6,71,30.00,10.0,West,15.0,-,N/A,,Mostly Cloudy,260,2013-02-22 20:55:00
3:15 PM,44.6,35.6,71,30.01,10.0,West,13.8,-,N/A,,Scattered Clouds,260,2013-02-22 21:15:00
3:35 PM,42.8,35.6,76,30.00,10.0,WSW,13.8,-,N/A,,Mostly Cloudy,250,2013-02-22 21:35:00
3:55 PM,41.0,33.8,76,30.01,10.0,West,11.5,-,N/A,,Mostly Cloudy,260,2013-02-22 21:55:00
4:15 PM,41.0,33.8,76,30.01,10.0,WSW,11.5,-,N/A,,Mostly Cloudy,250,2013-02-22 22:15:00
4:35 PM,39.2,33.8,81,30.01,10.0,West,10.4,-,N/A,,Mostly Cloudy,260,2013-02-22 22:35:00
4:55 PM,39.2,33.8,81,30.01,10.0,West,9.2,-,N/A,,Overcast,260,2013-02-22 22:55:00
5:15 PM,39.2,32.0,75,30.02,10.0,West,11.5,-,N/A,,Overcast,270,2013-02-22 23:15:00
5:35 PM,39.2,33.8,81,30.02,10.0,West,9.2,-,N/A,,Overcast,260,2013-02-22 23:35:00
5:55 PM,39.2,32.0,75,30.03,10.0,WSW,10.4,-,N/A,,Overcast,250,2013-02-22 23:55:00
6:15 PM,37.4,32.0,81,30.04,10.0,WSW,5.8,-,N/A,,Scattered Clouds,240,2013-02-23 00:15:00
6:35 PM,37.4,32.0,81,30.04,10.0,SSW,4.6,-,N/A,,Scattered Clouds,200,2013-02-23 00:35:00
6:55 PM,37.4,32.0,81,30.04,10.0,SW,4.6,-,N/A,,Mostly Cloudy,220,2013-02-23 00:55:00
7:15 PM,37.4,32.0,81,30.04,10.0,SW,5.8,-,N/A,,Overcast,220,2013-02-23 01:15:00
7:35 PM,37.4,32.0,81,30.05,10.0,SW,6.9,-,N/A,,Overcast,230,2013-02-23 01:35:00
7:55 PM,37.4,32.0,81,30.05,10.0,WSW,5.8,-,N/A,,Overcast,240,2013-02-23 01:55:00
8:15 PM,37.4,32.0,81,30.05,10.0,SW,5.8,-,N/A,,Overcast,230,2013-02-23 02:15:00
8:55 PM,37.4,32.0,81,30.06,10.0,WSW,6.9,-,N/A,,Mostly Cloudy,250,2013-02-23 02:55:00
9:15 PM,37.4,32.0,81,30.05,10.0,West,5.8,-,N/A,,Scattered Clouds,270,2013-02-23 03:15:00
9:35 PM,37.4,32.0,81,30.05,10.0,West,5.8,-,N/A,,Mostly Cloudy,280,2013-02-23 03:35:00
9:55 PM,37.4,32.0,81,30.05,10.0,WNW,6.9,-,N/A,,Mostly Cloudy,290,2013-02-23 03:55:00
10:15 PM,37.4,33.8,87,30.06,10.0,NW,9.2,-,N/A,,Scattered Clouds,310,2013-02-23 04:15:00
10:55 PM,33.8,30.2,87,30.06,10.0,NW,9.2,-,N/A,,Overcast,320,2013-02-23 04:55:00
11:15 PM,33.8,28.4,81,30.06,10.0,NNW,10.4,-,N/A,,Overcast,330,2013-02-23 05:15:00
11:35 PM,32.0,28.4,87,30.07,10.0,NW,10.4,-,N/A,,Overcast,320,2013-02-23 05:35:00
11:55 PM,32.0,26.6,80,30.07,10.0,NW,6.9,-,N/A,,Overcast,320,2013-02-23 05:55:00